Birmingham, AL

11:25 AM CST on November 23, 2014 (GMT -0600)
Birmingham International | Change Station
CLOSE
Current Station
Airport
Location: Birmingham,
Elevation: 630 ft
Nearby Weather Stations

Elev 630 ft 33.57 °N, 86.74 °W | Updated 10 minutes ago

Rain
Rain
59 °F
Feels Like 59 °F
N
12
Wind Variable Wind from East

Today
High -- | Low -- °F
--% Chance of Precip.
Yesterday
High -- | Low -- °F
Precip. -- in
6:26 AM 4:40 PM
New Moon, 2% visible
Pressure 29.72 in
Visibility 2.0 miles
Clouds Scattered Clouds 700 ft
Mostly Cloudy 1400 ft
Overcast 3100 ft
Dew Point 57 °F
Humidity 93%
Rainfall 0.30 in
Snow Depth Not available.
UV 1 out of 12
Pollen .30 out of 12
Air Quality Not available.
Flu Activity Not available.
SPECI KBHM 231715Z 10010KT 2SM +TSRA BR SCT007 BKN014 OVC031 15/14 A2972 RMK AO2 LTG DSNT NE TSE03B08 PRESFR OCNL LTGIC OHD TS OHD MOV N P0008 T01500139

More Conditions Fewer Conditions

Pressure 29.72 in
Visibility 2.0 miles
Clouds Scattered Clouds 700 ft
Mostly Cloudy 1400 ft
Overcast 3100 ft
Dew Point 57 °F
Humidity 93%
Rainfall 0.30 in
Snow Depth Not available.
UV 1 out of 12
Pollen .30 out of 12
Air Quality Not available.
Flu Activity Not available.
SPECI KBHM 231715Z 10010KT 2SM +TSRA BR SCT007 BKN014 OVC031 15/14 A2972 RMK AO2 LTG DSNT NE TSE03B08 PRESFR OCNL LTGIC OHD TS OHD MOV N P0008 T01500139

More Conditions Fewer Conditions

10-Day Weather Forecast

Almanac

Astronomy

Nov. 23, 2014 Rise Set
Actual Time
Civil Twilight
Nautical Twilight
Astronomical Twilight
Moon
Length of Visible Light
Length of Day
Tomorrow will be .
, % of the Moon is Illuminated

Today's Extremes

State Highs State Lows

Community

WunderPhotos

Upload Photos

1,773,110 photos uploaded!

WunderBlogs® & News

Nearby

Air Quality

  Air Quality AQ Index Pollutant
Not available.

Snow Depth

Station Depth Elevation

Earthquake Activity

City Distance Mag. Time & Date
Minimum magnitude displayed is 2.5.

Coastal Water Temperatures

Place Temperature

Nearby Weather Stations